Abraham Baldwin College, Georgia
Current Conditions -  °F | °C
As of 1:35 AM on Sunday 21 Dec 2014 (Local Time) from KTMA Reporting Station
Light Rain Light Rain  
Wind Chill: 11°   Ceiling: 800
Heat Index: 11°   Visibility: 10mi
Dew Point: 11°   Wind: 3mph
Humidity: 95%   Direction: 80°E
Pressure: 30.14"   Gusts: NA
Location:  31.4406°N, 83.464°W
Report Text: KTMA 210635Z AUTO 08003KT 10SM -RA BKN008 BKN041 OVC065 12/11 A3014 RMK AO2 T01150107
Loading
Personal Weather Stations






























Interactive Weather Map New forecast layout! Learn more

10-Day Weather Forecast

Advertisements
Track Severe Weather on mobile